Terminal Aerodrome Forecast
Issued by NWS

Current Version | Previous Version | Text Only | Print | Product List | Glossary On
Versions: 1 2 3 4 5 6 7 8 9 10 11 12 13 14 15 16 17 18 19 20 21 22 23 24 25 26 27 28
102
FTUS46 KMTR 231725
TAFSTS
TAF
KSTS 231725Z 2318/2418 00000KT P6SM BKN080 BKN250
      TEMPO 2318/2322 -SHRA BKN040 OVC060
     FM232200 VRB03KT P6SM VCSH SCT080 OVC200
     FM240300 00000KT P6SM FEW040 SCT200
     FM240900 00000KT 1/2SM FG VV002
      TEMPO 2410/2414 1/4SM FG VV002
     FM241600 00000KT 5SM BR BKN200=

USA.gov is the U.S. government's official web portal to all federal, state and local government web resources and services.